createdAt,value
2022-08-24T00:01:43.887Z,7.38
2022-08-24T00:03:48.631Z,6.93
2022-08-24T00:05:59.826Z,6.90
2022-08-24T00:08:06.537Z,7.07
2022-08-24T00:10:11.879Z,6.38
2022-08-24T00:12:16.642Z,6.82
2022-08-24T00:14:23.339Z,6.80
2022-08-24T00:16:28.018Z,6.72
2022-08-24T00:18:34.561Z,6.95
2022-08-24T00:20:45.105Z,6.40
2022-08-24T00:22:49.696Z,6.15
2022-08-24T00:24:57.351Z,7.00
2022-08-24T00:27:03.884Z,6.47
2022-08-24T00:29:09.040Z,6.50
2022-08-24T00:31:14.902Z,6.63
2022-08-24T00:33:19.892Z,6.55
2022-08-24T00:35:25.285Z,6.35
2022-08-24T00:37:33.039Z,6.03
2022-08-24T00:39:37.838Z,5.95
2022-08-24T00:41:49.554Z,6.10
2022-08-24T00:44:02.604Z,5.60
2022-08-24T00:46:48.569Z,4.95
2022-08-24T00:51:26.903Z,5.82
2022-08-24T00:53:38.591Z,5.63
2022-08-24T00:55:50.913Z,5.53
2022-08-24T00:58:02.512Z,5.20
2022-08-24T01:00:16.954Z,5.57
2022-08-24T01:02:25.811Z,5.18
2022-08-24T01:04:39.137Z,5.10
2022-08-24T01:06:43.888Z,5.28
2022-08-24T01:08:48.256Z,5.07
2022-08-24T01:11:10.453Z,4.53
2022-08-24T01:13:17.373Z,4.60
2022-08-24T01:15:23.826Z,4.70
2022-08-24T01:17:42.218Z,4.75
2022-08-24T01:19:51.235Z,6.85
2022-08-24T01:22:28.227Z,6.43
2022-08-24T01:24:34.875Z,4.88
2022-08-24T01:26:43.424Z,5.38
2022-08-24T01:28:51.039Z,4.53
2022-08-24T01:31:00.654Z,4.53
2022-08-24T01:33:09.016Z,4.25
2022-08-24T01:35:13.701Z,3.78
2022-08-24T01:37:22.943Z,4.13
2022-08-24T01:39:32.285Z,3.60
2022-08-24T01:41:36.981Z,3.80
2022-08-24T01:43:43.880Z,3.50
2022-08-24T01:45:48.321Z,4.22
2022-08-24T01:47:54.893Z,3.70
2022-08-24T01:50:03.583Z,3.72
2022-08-24T01:52:08.922Z,3.65
2022-08-24T01:54:13.531Z,4.50
2022-08-24T01:56:20.152Z,3.60
2022-08-24T01:58:26.495Z,3.80
2022-08-24T02:00:31.041Z,3.40
2022-08-24T02:02:37.805Z,3.25
2022-08-24T02:04:44.252Z,3.88
2022-08-24T02:06:50.477Z,4.00
2022-08-24T02:08:59.142Z,3.30
2022-08-24T02:11:09.771Z,3.50
2022-08-24T02:13:15.607Z,3.08
2022-08-24T02:15:24.286Z,3.47
2022-08-24T02:17:29.537Z,3.03
2022-08-24T02:19:34.005Z,3.58
2022-08-24T02:21:43.194Z,2.80
2022-08-24T02:23:47.660Z,3.10
2022-08-24T02:25:53.232Z,2.72
2022-08-24T02:28:02.724Z,2.65
2022-08-24T02:30:08.159Z,2.78
2022-08-24T02:32:13.426Z,2.63
2022-08-24T02:34:20.547Z,2.75
2022-08-24T02:36:26.684Z,3.30
2022-08-24T02:38:35.565Z,2.95
2022-08-24T02:40:45.523Z,2.47
2022-08-24T02:42:50.620Z,2.47
2022-08-24T02:44:56.283Z,3.00
2022-08-24T02:47:02.542Z,2.72
2022-08-24T02:49:11.752Z,2.53
2022-08-24T02:51:25.381Z,3.10
2022-08-24T02:53:31.436Z,2.58
2022-08-24T02:55:36.066Z,3.03
2022-08-24T02:57:41.263Z,2.58
2022-08-24T02:59:47.713Z,3.10
2022-08-24T03:01:53.353Z,2.90
2022-08-24T03:03:58.889Z,3.00
2022-08-24T03:06:08.702Z,3.65
2022-08-24T03:08:13.673Z,3.70
2022-08-24T03:10:18.823Z,3.25
2022-08-24T03:12:27.309Z,2.50
2022-08-24T03:14:32.229Z,2.33
2022-08-24T03:16:36.908Z,3.15
2022-08-24T03:18:42.116Z,2.60
2022-08-24T03:20:51.261Z,2.67
2022-08-24T03:22:56.126Z,2.95
2022-08-24T03:25:00.644Z,2.60
2022-08-24T03:27:06.343Z,2.97
2022-08-24T03:29:13.229Z,2.75
2022-08-24T03:31:20.717Z,3.00
2022-08-24T03:33:33.137Z,3.10
2022-08-24T03:35:37.814Z,2.42
2022-08-24T03:37:47.165Z,2.45
2022-08-24T03:39:52.386Z,3.00
2022-08-24T03:41:57.135Z,2.42
2022-08-24T03:44:07.132Z,2.83
2022-08-24T03:46:13.046Z,2.83
2022-08-24T03:48:19.410Z,2.95
2022-08-24T03:50:28.490Z,2.80
2022-08-24T03:52:34.036Z,3.40
2022-08-24T03:54:39.176Z,2.95
2022-08-24T03:56:45.698Z,2.30
2022-08-24T03:58:50.413Z,2.78
2022-08-24T04:00:56.595Z,2.60
2022-08-24T04:03:06.072Z,2.50
2022-08-24T04:05:11.820Z,2.70
2022-08-24T04:07:17.411Z,2.35
2022-08-24T04:09:24.346Z,2.33
2022-08-24T04:11:30.097Z,3.13
2022-08-24T04:13:34.543Z,2.97
2022-08-24T04:15:44.239Z,2.90
2022-08-24T04:17:48.774Z,2.88
2022-08-24T04:20:00.592Z,2.97
2022-08-24T04:22:11.577Z,2.58
2022-08-24T04:24:16.979Z,2.80
2022-08-24T04:26:32.395Z,2.88
2022-08-24T04:28:50.307Z,3.05
2022-08-24T04:30:54.661Z,2.80
2022-08-24T04:33:08.889Z,3.00
2022-08-24T04:35:13.804Z,3.05
2022-08-24T04:37:22.746Z,2.88
2022-08-24T04:39:34.789Z,3.08
2022-08-24T04:41:55.380Z,3.47
2022-08-24T04:44:00.898Z,3.47
2022-08-24T04:46:08.922Z,3.45
2022-08-24T04:48:16.880Z,3.25
2022-08-24T04:50:21.682Z,3.97
2022-08-24T04:52:30.556Z,3.63
2022-08-24T04:54:38.915Z,3.55
2022-08-24T04:56:47.199Z,3.53
2022-08-24T04:58:53.675Z,3.50
2022-08-24T05:01:02.487Z,3.90
2022-08-24T05:03:07.691Z,3.67
2022-08-24T05:05:12.931Z,3.42
2022-08-24T05:07:19.103Z,3.65
2022-08-24T05:09:23.720Z,4.47
2022-08-24T05:11:33.492Z,4.10
2022-08-24T05:13:42.442Z,3.88
2022-08-24T05:15:48.264Z,4.07
2022-08-24T05:17:52.984Z,4.00
2022-08-24T05:20:00.346Z,3.47
2022-08-24T05:22:04.925Z,3.20
2022-08-24T05:24:10.590Z,3.30
2022-08-24T05:26:17.886Z,3.10
2022-08-24T05:28:22.243Z,3.00
2022-08-24T05:30:31.079Z,3.00
2022-08-24T05:32:39.844Z,3.00
2022-08-24T05:34:45.594Z,3.35
2022-08-24T05:36:51.529Z,2.97
2022-08-24T05:39:19.918Z,2.97
2022-08-24T05:41:31.644Z,3.40
2022-08-24T05:43:46.543Z,3.47
2022-08-24T05:45:55.217Z,3.40
2022-08-24T05:48:00.815Z,3.03
2022-08-24T05:50:25.984Z,3.10
2022-08-24T05:52:32.355Z,2.90
2022-08-24T05:54:37.879Z,2.70
2022-08-24T05:56:43.964Z,2.78
2022-08-24T05:58:53.013Z,3.13
2022-08-24T06:00:58.378Z,2.95
2022-08-24T06:03:03.929Z,3.45
2022-08-24T06:05:14.648Z,2.85
2022-08-24T06:07:19.641Z,3.10
2022-08-24T06:09:30.867Z,3.17
2022-08-24T06:11:38.460Z,3.72
2022-08-24T06:13:43.888Z,3.00
2022-08-24T06:16:10.965Z,2.97
2022-08-24T06:18:17.984Z,2.90
2022-08-24T06:20:23.267Z,3.42
2022-08-24T06:22:27.937Z,3.30
2022-08-24T06:24:46.585Z,3.50
2022-08-24T06:27:03.041Z,3.55
2022-08-24T06:29:27.614Z,3.22
2022-08-24T06:31:59.071Z,3.08
2022-08-24T06:34:04.136Z,3.15
2022-08-24T06:36:16.625Z,3.50
2022-08-24T06:38:46.960Z,4.10
2022-08-24T06:41:01.660Z,3.33
2022-08-24T06:43:28.294Z,3.30
2022-08-24T06:45:55.347Z,3.08
2022-08-24T06:48:10.735Z,3.00
2022-08-24T06:50:22.029Z,2.88
2022-08-24T06:52:35.570Z,3.45
2022-08-24T06:54:40.426Z,2.88
2022-08-24T06:56:47.285Z,2.80
2022-08-24T06:58:57.388Z,2.95
2022-08-24T07:01:10.794Z,2.60
2022-08-24T07:03:16.349Z,2.55
2022-08-24T07:05:33.053Z,2.95
2022-08-24T07:07:50.530Z,2.50
2022-08-24T07:09:55.289Z,2.53
2022-08-24T07:12:04.982Z,2.85
2022-08-24T07:14:10.500Z,2.92
2022-08-24T07:16:15.993Z,3.13
2022-08-24T07:18:25.975Z,2.95
2022-08-24T07:20:34.475Z,3.13
2022-08-24T07:22:46.375Z,5.30
2022-08-24T07:24:52.251Z,3.80
2022-08-24T07:26:57.038Z,3.00
2022-08-24T07:29:07.417Z,2.70
2022-08-24T07:31:21.528Z,2.92
2022-08-24T07:33:34.546Z,3.40
2022-08-24T07:35:39.524Z,3.85
2022-08-24T07:37:50.204Z,3.30
2022-08-24T07:39:58.141Z,5.97
2022-08-24T07:42:12.695Z,3.88
2022-08-24T07:44:22.491Z,3.17
2022-08-24T07:46:28.475Z,3.22
2022-08-24T07:48:34.250Z,3.15
2022-08-24T07:50:45.550Z,3.22
2022-08-24T07:52:51.195Z,3.30
2022-08-24T07:54:56.098Z,3.20
2022-08-24T07:57:07.158Z,3.20
2022-08-24T08:01:19.444Z,3.70
2022-08-24T08:03:28.090Z,2.78
2022-08-24T08:05:32.744Z,3.03
2022-08-24T08:07:37.283Z,3.55
2022-08-24T08:09:42.409Z,4.22
2022-08-24T08:11:50.436Z,3.05
2022-08-24T08:13:55.429Z,2.85
2022-08-24T08:16:02.333Z,2.83
2022-08-24T08:18:08.632Z,2.90
2022-08-24T08:20:18.843Z,2.97
2022-08-24T08:22:36.884Z,6.30
2022-08-24T08:24:54.009Z,4.20
2022-08-24T08:26:59.050Z,2.97
2022-08-24T08:29:08.848Z,2.80
2022-08-24T08:31:14.340Z,2.80
2022-08-24T08:33:19.528Z,2.90
2022-08-24T08:35:28.904Z,3.00
2022-08-24T08:37:33.774Z,2.70
2022-08-24T08:39:39.580Z,2.65
2022-08-24T08:42:18.704Z,2.35
2022-08-24T08:44:45.183Z,2.97
2022-08-24T08:47:17.968Z,3.50
2022-08-24T08:49:57.293Z,3.40
2022-08-24T08:52:17.467Z,3.60
2022-08-24T08:54:38.309Z,3.28
2022-08-24T08:57:25.735Z,5.68
2022-08-24T09:00:08.040Z,3.25
2022-08-24T09:02:35.651Z,3.13
2022-08-24T09:05:03.977Z,3.30
2022-08-24T09:07:42.555Z,3.25
2022-08-24T09:10:21.499Z,3.63
2022-08-24T09:12:58.897Z,3.33
2022-08-24T09:15:35.771Z,3.10
2022-08-24T09:18:08.958Z,3.60
2022-08-24T09:20:46.043Z,2.95
2022-08-24T09:23:02.026Z,3.25
2022-08-24T09:25:30.165Z,3.38
2022-08-24T09:28:11.755Z,3.47
2022-08-24T09:30:24.496Z,3.97
2022-08-24T09:32:56.026Z,3.47
2022-08-24T09:35:26.789Z,3.25
2022-08-24T09:37:48.344Z,3.45
2022-08-24T09:40:27.447Z,3.20
2022-08-24T09:43:03.902Z,3.05
2022-08-24T09:45:42.856Z,3.15
2022-08-24T09:48:19.106Z,4.10
2022-08-24T09:51:05.076Z,5.10
2022-08-24T09:53:36.514Z,4.80
2022-08-24T09:56:15.111Z,3.78
2022-08-24T09:58:38.687Z,2.92
2022-08-24T10:00:49.563Z,2.70
2022-08-24T10:03:23.835Z,3.10
2022-08-24T10:06:12.265Z,3.00
2022-08-24T10:08:46.900Z,3.50
2022-08-24T10:11:31.945Z,2.90
2022-08-24T10:14:10.612Z,2.70
2022-08-24T10:16:40.118Z,3.35
2022-08-24T10:19:02.583Z,3.30
2022-08-24T10:21:30.641Z,4.32
2022-08-24T10:24:11.187Z,3.83
2022-08-24T10:26:41.394Z,3.65
2022-08-24T10:29:14.503Z,3.30
2022-08-24T10:31:44.029Z,10.55
2022-08-24T10:34:20.965Z,3.83
2022-08-24T10:37:00.028Z,3.92
2022-08-24T10:39:43.536Z,3.90
2022-08-24T10:42:39.413Z,4.78
2022-08-24T10:44:51.583Z,5.15
2022-08-24T10:47:03.043Z,4.88
2022-08-24T10:49:50.960Z,4.15
2022-08-24T10:52:27.146Z,3.15
2022-08-24T10:54:37.764Z,3.25
2022-08-24T10:56:49.642Z,3.13
2022-08-24T10:59:20.326Z,3.67
2022-08-24T11:01:48.960Z,3.63
2022-08-24T11:04:09.830Z,3.20
2022-08-24T11:06:18.799Z,3.25
2022-08-24T11:08:26.993Z,3.25
2022-08-24T11:10:33.780Z,3.33
2022-08-24T11:12:40.986Z,3.13
2022-08-24T11:14:50.018Z,3.38
2022-08-24T11:16:58.050Z,4.60
2022-08-24T11:19:05.188Z,4.13
2022-08-24T11:21:12.100Z,4.07
2022-08-24T11:23:22.698Z,4.45
2022-08-24T11:25:34.413Z,4.65
2022-08-24T11:27:45.693Z,4.40
2022-08-24T11:29:57.561Z,5.85
2022-08-24T11:32:02.291Z,8.13
2022-08-24T11:34:10.399Z,8.05
2022-08-24T11:36:21.200Z,8.10
2022-08-24T11:38:35.558Z,7.28
2022-08-24T11:40:44.391Z,5.70
2022-08-24T11:43:13.487Z,5.97
2022-08-24T11:45:41.431Z,5.97
2022-08-24T11:48:12.528Z,5.82
2022-08-24T11:51:02.001Z,6.55
2022-08-24T11:56:25.554Z,5.65
2022-08-24T11:58:57.061Z,5.55
2022-08-24T12:01:30.336Z,5.03
2022-08-24T12:03:52.599Z,5.32
2022-08-24T12:06:20.336Z,5.90
2022-08-24T12:08:51.729Z,6.82
2022-08-24T12:11:28.437Z,6.78
2022-08-24T12:13:55.056Z,7.72
2022-08-24T12:16:10.905Z,7.65
2022-08-24T12:18:29.316Z,7.60
2022-08-24T12:20:37.504Z,8.82
2022-08-24T12:22:42.045Z,8.50
2022-08-24T12:24:50.304Z,8.27
2022-08-24T12:27:05.060Z,8.43
2022-08-24T12:29:31.701Z,8.25
2022-08-24T12:32:16.919Z,9.30
2022-08-24T12:34:43.172Z,13.23
2022-08-24T12:37:10.762Z,12.05
2022-08-24T12:39:29.092Z,11.85
2022-08-24T12:41:50.607Z,11.88
2022-08-24T12:44:11.323Z,10.75
2022-08-24T12:46:19.047Z,12.95
2022-08-24T12:48:41.274Z,12.88
2022-08-24T12:51:17.944Z,11.55
2022-08-24T12:53:49.368Z,11.65
2022-08-24T12:56:19.320Z,13.02
2022-08-24T12:58:54.689Z,11.93
2022-08-24T13:01:03.904Z,12.55
2022-08-24T13:03:33.443Z,11.83
2022-08-24T13:05:47.849Z,12.20
2022-08-24T13:07:53.666Z,11.77
2022-08-24T13:10:15.639Z,11.55
2022-08-24T13:12:49.871Z,13.05
2022-08-24T13:14:56.783Z,12.30
2022-08-24T13:17:11.373Z,11.85
2022-08-24T13:19:39.288Z,11.73
2022-08-24T13:21:49.017Z,12.45
2022-08-24T13:24:25.553Z,11.77
2022-08-24T13:26:35.649Z,11.15
2022-08-24T13:28:46.998Z,10.60
2022-08-24T13:31:20.094Z,11.25
2022-08-24T13:33:54.145Z,10.32
2022-08-24T13:36:07.503Z,11.25
2022-08-24T13:38:38.839Z,11.88
2022-08-24T13:40:50.029Z,11.77
2022-08-24T13:43:20.863Z,11.55
2022-08-24T13:45:54.608Z,11.98
2022-08-24T13:48:37.949Z,11.38
2022-08-24T13:51:09.000Z,11.93
2022-08-24T13:53:43.093Z,11.63
2022-08-24T13:56:30.269Z,11.45
2022-08-24T13:59:02.811Z,11.70
2022-08-24T14:03:58.317Z,11.70
2022-08-24T14:06:28.706Z,11.40
2022-08-24T14:08:57.474Z,11.80
2022-08-24T14:11:34.012Z,11.02
2022-08-24T14:13:48.860Z,10.27
2022-08-24T14:16:37.504Z,10.48
2022-08-24T14:19:06.369Z,10.52
2022-08-24T14:21:17.972Z,10.13
2022-08-24T14:23:42.478Z,9.77
2022-08-24T14:25:47.262Z,9.55
2022-08-24T14:28:23.857Z,9.55
2022-08-24T14:30:45.683Z,9.20
2022-08-24T14:33:20.400Z,8.95
2022-08-24T14:35:49.364Z,8.63
2022-08-24T14:38:28.547Z,9.70
2022-08-24T14:41:04.628Z,9.30
2022-08-24T14:43:30.583Z,9.55
2022-08-24T14:46:02.793Z,9.07
2022-08-24T14:48:41.903Z,9.80
2022-08-24T14:51:03.494Z,9.85
2022-08-24T14:53:39.757Z,10.15
2022-08-24T14:56:16.504Z,9.93
2022-08-24T14:58:53.057Z,9.82
2022-08-24T15:01:31.665Z,10.82
2022-08-24T15:04:01.240Z,10.48
2022-08-24T15:06:28.761Z,10.50
2022-08-24T15:08:40.312Z,10.85
2022-08-24T15:11:10.254Z,10.55
2022-08-24T15:13:44.785Z,10.93
2022-08-24T15:16:11.715Z,11.40
2022-08-24T15:18:41.857Z,12.63
2022-08-24T15:21:09.819Z,12.98
2022-08-24T15:23:43.549Z,12.95
2022-08-24T15:25:56.595Z,11.05
2022-08-24T15:28:25.130Z,10.60
2022-08-24T15:30:31.977Z,10.25
2022-08-24T15:32:56.120Z,10.90
2022-08-24T15:35:04.638Z,10.73
2022-08-24T15:37:09.635Z,9.90
2022-08-24T15:39:26.019Z,11.35
2022-08-24T15:41:38.921Z,11.27
2022-08-24T15:44:05.579Z,11.52
2022-08-24T15:46:09.924Z,11.38
2022-08-24T15:48:17.467Z,11.20
2022-08-24T15:50:25.385Z,10.85
2022-08-24T15:52:43.145Z,10.63
2022-08-24T15:55:00.333Z,10.88
2022-08-24T15:57:07.309Z,11.27
2022-08-24T15:59:14.291Z,11.30
2022-08-24T16:01:46.738Z,10.43
2022-08-24T16:06:00.514Z,10.90
2022-08-24T16:08:13.886Z,10.52
2022-08-24T16:10:18.599Z,10.80
2022-08-24T16:12:24.024Z,10.80
2022-08-24T16:14:47.107Z,10.50
2022-08-24T16:18:59.819Z,10.65
2022-08-24T16:21:16.304Z,10.68
2022-08-24T16:23:29.366Z,10.35
2022-08-24T16:25:50.927Z,9.98
2022-08-24T16:28:22.111Z,9.85
2022-08-24T16:30:44.268Z,9.70
2022-08-24T16:32:55.916Z,10.18
2022-08-24T16:35:22.388Z,9.63
2022-08-24T16:37:29.035Z,9.52
2022-08-24T16:39:35.680Z,9.70
2022-08-24T16:41:45.156Z,9.88
2022-08-24T16:43:50.026Z,9.18
2022-08-24T16:45:55.674Z,9.38
2022-08-24T16:48:04.449Z,9.48
2022-08-24T16:50:09.244Z,9.73
2022-08-24T16:52:14.174Z,9.07
2022-08-24T16:54:21.984Z,8.35
2022-08-24T16:56:26.723Z,8.45
2022-08-24T16:58:33.314Z,9.27
2022-08-24T17:00:39.939Z,9.07
2022-08-24T17:02:49.136Z,9.40
2022-08-24T17:04:58.742Z,9.38
2022-08-24T17:07:07.414Z,8.95
2022-08-24T17:09:12.034Z,8.77
2022-08-24T17:11:16.704Z,9.88
2022-08-24T17:13:48.271Z,9.10
2022-08-24T17:15:53.678Z,9.10
2022-08-24T17:18:03.701Z,9.25
2022-08-24T17:20:14.139Z,9.07
2022-08-24T17:22:18.423Z,8.23
2022-08-24T17:24:23.722Z,8.50
2022-08-24T17:26:30.345Z,8.10
2022-08-24T17:28:35.449Z,8.02
2022-08-24T17:30:41.570Z,7.18
2022-08-24T17:32:51.659Z,6.53
2022-08-24T17:34:57.293Z,5.05
2022-08-24T17:37:02.517Z,4.25
2022-08-24T17:39:11.163Z,3.85
2022-08-24T17:41:18.522Z,3.50
2022-08-24T17:43:23.375Z,3.40
2022-08-24T17:45:32.152Z,3.03
2022-08-24T17:47:36.755Z,2.80
2022-08-24T17:49:41.719Z,2.97
2022-08-24T17:51:50.248Z,2.53
2022-08-24T17:53:55.327Z,2.42
2022-08-24T17:55:59.850Z,2.70
2022-08-24T17:58:04.545Z,2.67
2022-08-24T18:00:11.123Z,2.45
2022-08-24T18:02:18.814Z,2.50
2022-08-24T18:04:29.329Z,2.17
2022-08-24T18:06:34.363Z,2.72
2022-08-24T18:08:39.636Z,2.40
2022-08-24T18:10:48.331Z,2.60
2022-08-24T18:12:53.258Z,2.70
2022-08-24T18:14:57.917Z,2.80
2022-08-24T18:17:10.944Z,2.70
2022-08-24T18:19:16.556Z,3.00
2022-08-24T18:21:27.564Z,2.70
2022-08-24T18:23:36.359Z,2.40
2022-08-24T18:25:49.673Z,2.40
2022-08-24T18:27:56.380Z,2.33
2022-08-24T18:30:04.949Z,2.15
2022-08-24T18:32:09.495Z,2.35
2022-08-24T18:34:18.319Z,2.50
2022-08-24T18:36:26.750Z,2.50
2022-08-24T18:38:34.832Z,2.35
2022-08-24T18:40:39.098Z,2.47
2022-08-24T18:42:47.933Z,2.60
2022-08-24T18:44:52.422Z,2.63
2022-08-24T18:46:57.115Z,2.45
2022-08-24T18:49:05.635Z,2.60
2022-08-24T18:51:10.845Z,2.63
2022-08-24T18:53:15.178Z,2.80
2022-08-24T18:55:21.990Z,2.78
2022-08-24T18:57:27.337Z,2.55
2022-08-24T18:59:31.733Z,2.83
2022-08-24T19:01:59.770Z,3.22
2022-08-24T19:04:12.022Z,2.90
2022-08-24T19:06:18.670Z,2.90
2022-08-24T19:08:27.131Z,3.25
2022-08-24T19:10:33.046Z,3.00
2022-08-24T19:12:42.392Z,3.10
2022-08-24T19:15:00.453Z,3.08
2022-08-24T19:17:07.849Z,3.20
2022-08-24T19:19:13.504Z,2.78
2022-08-24T19:21:21.493Z,3.20
2022-08-24T19:23:31.144Z,3.33
2022-08-24T19:25:36.657Z,2.80
2022-08-24T19:27:43.598Z,2.60
2022-08-24T19:29:57.474Z,2.60
2022-08-24T19:32:02.089Z,2.55
2022-08-24T19:34:08.972Z,2.42
2022-08-24T19:36:18.178Z,2.20
2022-08-24T19:38:25.872Z,2.08
2022-08-24T19:40:33.621Z,1.90
2022-08-24T19:42:38.091Z,1.75
2022-08-24T19:44:56.645Z,2.00
2022-08-24T19:47:03.276Z,1.70
2022-08-24T19:49:10.003Z,1.73
2022-08-24T19:51:14.982Z,1.90
2022-08-24T19:53:20.839Z,1.70
2022-08-24T19:55:27.488Z,1.42
2022-08-24T19:57:49.488Z,1.58
2022-08-24T19:59:56.293Z,1.30
2022-08-24T20:02:02.600Z,1.60
2022-08-24T20:04:07.828Z,1.77
2022-08-24T20:06:15.127Z,1.90
2022-08-24T20:08:21.871Z,2.10
2022-08-24T20:10:28.338Z,1.70
2022-08-24T20:12:33.139Z,2.00
2022-08-24T20:14:40.336Z,1.80
2022-08-24T20:16:45.073Z,1.83
2022-08-24T20:18:50.870Z,2.08
2022-08-24T20:20:58.769Z,2.25
2022-08-24T20:23:07.114Z,1.60
2022-08-24T20:25:12.948Z,1.52
2022-08-24T20:27:22.525Z,1.52
2022-08-24T20:29:27.021Z,1.40
2022-08-24T20:31:34.119Z,1.45
2022-08-24T20:33:41.856Z,1.73
2022-08-24T20:35:47.833Z,1.70
2022-08-24T20:37:53.857Z,1.30
2022-08-24T20:40:01.358Z,1.40
2022-08-24T20:42:08.625Z,1.50
2022-08-24T20:44:16.970Z,1.48
2022-08-24T20:46:24.212Z,1.30
2022-08-24T20:48:31.349Z,1.67
2022-08-24T20:50:38.335Z,1.48
2022-08-24T20:52:44.708Z,1.38
2022-08-24T20:54:49.458Z,1.30
2022-08-24T20:56:54.049Z,1.40
2022-08-24T20:59:04.525Z,1.38
2022-08-24T21:01:09.878Z,1.42
2022-08-24T21:03:19.391Z,1.50
2022-08-24T21:05:24.583Z,1.40
2022-08-24T21:07:29.032Z,1.20
2022-08-24T21:09:35.711Z,1.73
2022-08-24T21:11:44.609Z,1.33
2022-08-24T21:13:48.986Z,1.45
2022-08-24T21:15:55.017Z,1.50
2022-08-24T21:18:02.639Z,1.40
2022-08-24T21:20:08.983Z,1.70
2022-08-24T21:22:15.624Z,1.45
2022-08-24T21:24:20.902Z,1.63
2022-08-24T21:26:27.384Z,1.98
2022-08-24T21:28:34.161Z,1.75
2022-08-24T21:30:38.811Z,2.00
2022-08-24T21:32:55.400Z,1.75
2022-08-24T21:35:02.242Z,1.63
2022-08-24T21:37:12.888Z,1.67
2022-08-24T21:39:17.823Z,2.40
2022-08-24T21:41:24.476Z,2.25
2022-08-24T21:43:31.017Z,2.20
2022-08-24T21:45:35.569Z,2.25
2022-08-24T21:47:41.851Z,2.00
2022-08-24T21:49:47.999Z,1.85
2022-08-24T21:51:52.860Z,2.00
2022-08-24T21:53:59.933Z,1.90
2022-08-24T21:56:04.919Z,1.92
2022-08-24T21:58:11.087Z,5.47
2022-08-24T22:00:17.974Z,5.18
2022-08-24T22:02:22.226Z,3.65
2022-08-24T22:04:26.611Z,3.03
2022-08-24T22:06:33.250Z,2.72
2022-08-24T22:08:40.163Z,2.67
2022-08-24T22:10:45.256Z,2.28
2022-08-24T22:12:53.212Z,2.83
2022-08-24T22:15:00.096Z,3.28
2022-08-24T22:17:05.675Z,2.63
2022-08-24T22:19:10.488Z,2.50
2022-08-24T22:21:18.033Z,3.08
2022-08-24T22:23:22.461Z,21.60
2022-08-24T22:25:30.356Z,74.72
2022-08-24T22:27:38.638Z,49.60
2022-08-24T22:29:44.462Z,29.88
2022-08-24T22:31:51.904Z,19.92
2022-08-24T22:34:00.902Z,7.75
2022-08-24T22:36:10.143Z,3.92
2022-08-24T22:38:17.056Z,4.20
2022-08-24T22:40:24.568Z,3.90
2022-08-24T22:42:30.299Z,3.53
2022-08-24T22:44:38.369Z,2.97
2022-08-24T22:46:44.873Z,2.35
2022-08-24T22:48:50.509Z,2.20
2022-08-24T22:50:57.222Z,1.98
2022-08-24T22:53:04.335Z,2.03
2022-08-24T22:55:09.881Z,1.92
2022-08-24T22:57:17.662Z,2.60
2022-08-24T22:59:29.573Z,2.45
2022-08-24T23:01:36.409Z,2.95
2022-08-24T23:03:41.276Z,2.80
2022-08-24T23:05:50.431Z,3.25
2022-08-24T23:07:54.866Z,4.30
2022-08-24T23:10:00.935Z,5.07
2022-08-24T23:12:07.690Z,3.85
2022-08-24T23:14:13.631Z,3.70
2022-08-24T23:16:18.552Z,3.15
2022-08-24T23:18:35.140Z,4.05
2022-08-24T23:20:40.996Z,3.65
2022-08-24T23:22:45.579Z,4.10
2022-08-24T23:24:52.084Z,3.67
2022-08-24T23:26:57.587Z,3.70
2022-08-24T23:29:04.634Z,3.85
2022-08-24T23:31:10.563Z,4.28
2022-08-24T23:33:16.581Z,4.60
2022-08-24T23:35:22.830Z,3.72
2022-08-24T23:37:31.716Z,3.83
2022-08-24T23:39:36.499Z,3.67
2022-08-24T23:41:46.125Z,4.40
2022-08-24T23:43:53.838Z,3.78
2022-08-24T23:45:58.418Z,3.83
2022-08-24T23:48:03.447Z,3.30
2022-08-24T23:50:11.065Z,3.50
2022-08-24T23:52:26.492Z,4.22
2022-08-24T23:54:33.163Z,5.05
2022-08-24T23:56:39.742Z,4.28
2022-08-24T23:58:44.523Z,4.00
